Time;durP1;ratioP1;P1;durP2;ratioP2;P2;SDS_P1;SDS_P2;PMS_P1;PMS_P2;Temp;Humidity;BMP_temperature;BMP_pressure;BME280_temperature;BME280_humidity;BME280_pressure;Samples;Min_cycle;Max_cycle;Signal;HPM_P1;HPM_P2
2021/04/30 00:00:58;;;;;;;8.45;7.18;;;;;;;9.97;60.40;100444.78;4992580;28;20026;-81
2021/04/30 00:03:23;;;;;;;7.25;5.80;;;;;;;10.03;60.59;100439.13;4992452;28;20042;-81
2021/04/30 00:05:48;;;;;;;5.95;5.35;;;;;;;10.05;60.02;100439.88;4992461;28;20392;-81
2021/04/30 00:08:15;;;;;;;7.25;5.97;;;;;;;10.04;59.54;100438.22;4992481;28;20131;-80
2021/04/30 00:10:41;;;;;;;7.65;6.25;;;;;;;9.97;60.67;100444.78;4992390;28;20030;-81
2021/04/30 00:13:10;;;;;;;8.35;6.55;;;;;;;10.07;61.18;100446.72;4992552;28;20492;-80
2021/04/30 00:15:36;;;;;;;7.40;5.63;;;;;;;9.96;60.92;100440.50;4993959;28;20167;-81
2021/04/30 00:18:04;;;;;;;6.63;6.03;;;;;;;10.03;60.50;100442.63;4996424;28;20161;-81
2021/04/30 00:20:32;;;;;;;7.70;6.15;;;;;;;10.05;61.70;100437.25;4996462;28;20022;-81
2021/04/30 00:22:57;;;;;;;10.15;7.20;;;;;;;9.92;60.97;100434.59;4996405;28;20034;-81
2021/04/30 00:25:23;;;;;;;9.23;8.32;;;;;;;9.95;61.47;100437.00;4996322;28;20022;-81
2021/04/30 00:27:49;;;;;;;10.15;8.57;;;;;;;10.01;61.78;100430.53;4995947;28;20060;-81
2021/04/30 00:30:14;;;;;;;12.82;9.63;;;;;;;10.03;63.28;100428.63;4996065;28;20109;-81
2021/04/30 00:32:40;;;;;;;16.75;12.30;;;;;;;10.08;60.95;100431.81;4996066;28;20034;-81
2021/04/30 00:35:06;;;;;;;16.48;11.35;;;;;;;9.91;61.12;100425.91;4996103;28;20035;-81
2021/04/30 00:37:31;;;;;;;12.90;10.73;;;;;;;9.95;61.97;100423.06;4995992;28;20108;-81
2021/04/30 00:39:57;;;;;;;12.40;9.80;;;;;;;9.92;62.37;100424.94;4995988;28;20019;-81
2021/04/30 00:42:22;;;;;;;9.65;8.52;;;;;;;9.95;62.16;100428.31;4995674;28;20435;-81
2021/04/30 00:44:48;;;;;;;12.45;8.45;;;;;;;10.02;62.00;100433.06;4995851;28;20034;-81
2021/04/30 00:47:50;;;;;;;12.77;8.88;;;;;;;10.25;60.71;100434.19;4995684;28;20078;-81
2021/04/30 00:50:16;;;;;;;7.95;7.13;;;;;;;9.98;60.10;100425.50;4916526;29;20700;-81
2021/04/30 00:52:41;;;;;;;8.50;7.57;;;;;;;10.02;61.05;100432.22;4975159;28;20320;-81
2021/04/30 00:55:10;;;;;;;10.02;7.80;;;;;;;10.03;61.70;100440.00;4995589;28;20018;-80
2021/04/30 00:57:40;;;;;;;7.47;6.75;;;;;;;10.11;60.87;100439.47;4994429;28;20027;-80
2021/04/30 01:00:08;;;;;;;7.40;6.55;;;;;;;9.99;61.34;100428.03;4995746;28;20029;-81
2021/04/30 01:02:34;;;;;;;7.90;6.82;;;;;;;9.88;61.85;100431.31;4995384;28;20023;-81
2021/04/30 01:05:01;;;;;;;9.27;6.63;;;;;;;9.91;61.41;100427.66;4995280;28;20037;-81
2021/04/30 01:07:27;;;;;;;10.63;8.48;;;;;;;9.92;60.12;100432.81;4995343;28;20022;-81
2021/04/30 01:09:55;;;;;;;10.82;7.20;;;;;;;9.98;60.69;100422.88;4995517;28;20044;-81
2021/04/30 01:12:21;;;;;;;10.82;7.38;;;;;;;9.97;63.30;100434.28;4995611;28;20057;-81
2021/04/30 01:14:46;;;;;;;10.57;8.02;;;;;;;9.93;64.09;100429.25;4995941;28;20469;-81
2021/04/30 01:17:11;;;;;;;9.77;7.65;;;;;;;9.85;63.96;100436.78;4995455;28;20058;-81
2021/04/30 01:19:37;;;;;;;11.85;8.63;;;;;;;9.79;64.16;100431.91;4994076;28;20030;-81
2021/04/30 01:22:02;;;;;;;10.68;9.07;;;;;;;9.71;64.49;100434.19;4995192;28;20077;-81
2021/04/30 01:24:28;;;;;;;14.05;9.23;;;;;;;9.67;65.03;100438.78;4994893;28;20054;-81
2021/04/30 01:26:54;;;;;;;14.85;9.43;;;;;;;9.68;64.42;100442.25;4994537;28;20046;-81
2021/04/30 01:29:20;;;;;;;15.23;11.00;;;;;;;9.70;65.05;100437.75;4995047;28;20068;-81
2021/04/30 01:31:46;;;;;;;15.50;10.25;;;;;;;9.61;65.71;100431.31;4995019;28;20026;-81
2021/04/30 01:34:12;;;;;;;13.63;10.70;;;;;;;9.63;65.11;100437.28;4995199;28;20033;-81
2021/04/30 01:36:38;;;;;;;15.02;11.88;;;;;;;9.60;65.35;100432.25;4994646;28;20085;-81
2021/04/30 01:39:08;;;;;;;12.60;10.73;;;;;;;9.55;65.22;100438.72;4994687;28;20038;-81
2021/04/30 01:41:34;;;;;;;17.25;12.85;;;;;;;9.36;66.17;100439.03;4994866;28;20076;-81
2021/04/30 01:44:00;;;;;;;21.83;13.43;;;;;;;9.19;66.45;100433.06;4994664;28;20022;-81
2021/04/30 01:46:26;;;;;;;19.42;13.23;;;;;;;9.21;65.56;100436.44;4994826;28;20045;-81
2021/04/30 01:48:52;;;;;;;22.15;14.00;;;;;;;9.10;66.11;100434.50;4994677;28;20030;-81
2021/04/30 01:51:17;;;;;;;21.58;14.10;;;;;;;9.03;67.41;100435.78;4994680;28;20468;-81
2021/04/30 01:53:43;;;;;;;21.60;13.90;;;;;;;9.11;67.61;100436.16;4994598;28;20027;-81
2021/04/30 01:56:15;;;;;;;19.70;14.85;;;;;;;9.19;66.54;100437.47;4994594;28;20022;-81
2021/04/30 01:58:41;;;;;;;19.38;14.73;;;;;;;8.77;66.75;100432.13;4994614;28;20504;-81
2021/04/30 02:01:08;;;;;;;20.05;14.02;;;;;;;8.64;68.28;100437.25;4994426;28;20037;-81
2021/04/30 02:03:34;;;;;;;19.13;13.25;;;;;;;8.82;68.33;100434.47;4994330;28;20710;-81
2021/04/30 02:05:59;;;;;;;18.08;14.20;;;;;;;8.67;69.29;100437.06;4994541;28;20037;-81
2021/04/30 02:08:25;;;;;;;18.58;13.63;;;;;;;8.91;67.98;100428.69;4994455;28;20041;-81
2021/04/30 02:10:51;;;;;;;18.95;13.05;;;;;;;8.99;67.25;100429.06;4994315;28;20388;-81
2021/04/30 02:13:22;;;;;;;17.55;13.10;;;;;;;9.06;67.06;100427.75;4994753;28;20106;-81
2021/04/30 02:15:49;;;;;;;18.08;13.25;;;;;;;8.94;67.81;100428.47;4994239;28;20036;-80
2021/04/30 02:18:14;;;;;;;17.17;12.60;;;;;;;8.90;68.21;100421.75;4994724;28;20409;-81
2021/04/30 02:20:40;;;;;;;18.30;13.05;;;;;;;8.92;68.68;100432.97;4994249;28;20101;-81
2021/04/30 02:23:06;;;;;;;15.85;12.63;;;;;;;8.88;66.75;100421.00;4994077;28;20034;-82
2021/04/30 02:25:32;;;;;;;19.25;12.52;;;;;;;8.82;67.10;100424.81;4994187;28;20064;-81
2021/04/30 02:28:02;;;;;;;16.85;11.25;;;;;;;8.74;68.88;100434.91;4994000;28;20080;-81
2021/04/30 02:30:29;;;;;;;13.57;10.23;;;;;;;8.71;68.77;100428.09;4993946;28;20041;-81
2021/04/30 02:32:56;;;;;;;13.52;10.02;;;;;;;8.72;68.11;100428.94;4993743;28;20084;-81
2021/04/30 02:35:29;;;;;;;13.35;9.88;;;;;;;8.81;67.84;100423.16;4993956;28;20029;-81
2021/04/30 02:37:55;;;;;;;14.10;9.80;;;;;;;8.80;68.71;100426.69;4993759;28;20121;-81
2021/04/30 02:40:25;;;;;;;13.52;9.82;;;;;;;8.80;67.94;100418.00;4993721;28;20109;-81
2021/04/30 02:42:51;;;;;;;13.85;10.35;;;;;;;8.61;68.61;100426.09;4993653;28;20472;-81
2021/04/30 02:45:17;;;;;;;12.32;9.80;;;;;;;8.59;68.10;100422.75;4993732;28;20057;-81
2021/04/30 02:47:48;;;;;;;13.32;9.88;;;;;;;8.59;67.44;100428.84;4993449;28;20057;-81
2021/04/30 02:50:19;;;;;;;11.48;9.20;;;;;;;8.83;67.71;100430.94;4992413;28;20030;-81
2021/04/30 02:52:46;;;;;;;12.68;8.93;;;;;;;8.80;67.12;100418.00;4993647;28;20065;-81
2021/04/30 02:55:13;;;;;;;10.35;8.02;;;;;;;8.90;64.92;100419.97;4993436;28;20042;-81
2021/04/30 02:57:39;;;;;;;14.77;7.53;;;;;;;8.87;66.07;100414.94;4993419;28;20069;-81
2021/04/30 03:00:07;;;;;;;11.63;8.60;;;;;;;8.66;68.09;100418.84;4993600;28;20045;-81
2021/04/30 03:02:32;;;;;;;11.70;8.77;;;;;;;8.51;68.43;100420.56;4993485;28;20051;-81
2021/04/30 03:04:58;;;;;;;11.07;9.05;;;;;;;8.63;68.39;100416.38;4993347;28;20026;-81
2021/04/30 03:07:23;;;;;;;14.27;8.70;;;;;;;8.66;68.52;100417.06;4993324;28;20022;-81
2021/04/30 03:09:48;;;;;;;17.25;9.38;;;;;;;8.77;68.52;100420.78;4993475;28;20381;-81
2021/04/30 03:12:14;;;;;;;10.95;8.38;;;;;;;8.90;67.58;100416.50;4993110;28;20034;-81
2021/04/30 03:14:40;;;;;;;12.95;8.38;;;;;;;8.81;66.50;100411.84;4993613;28;20448;-81
2021/04/30 03:17:05;;;;;;;9.48;8.32;;;;;;;8.68;68.31;100417.81;4993147;28;20619;-81
2021/04/30 03:19:30;;;;;;;13.10;9.25;;;;;;;8.58;68.70;100423.69;4991675;28;20027;-81
2021/04/30 03:21:56;;;;;;;11.05;8.45;;;;;;;8.58;67.77;100421.91;4991733;28;20080;-81
2021/04/30 03:24:21;;;;;;;10.65;8.27;;;;;;;8.67;68.52;100420.53;4992773;28;20054;-81
2021/04/30 03:26:46;;;;;;;11.35;8.18;;;;;;;8.53;68.41;100416.09;4992909;28;20501;-81
2021/04/30 03:29:12;;;;;;;8.77;7.22;;;;;;;8.55;67.94;100422.09;4992841;28;20030;-80
2021/04/30 03:31:37;;;;;;;8.70;7.43;;;;;;;8.37;68.59;100423.97;4992802;28;20105;-81
2021/04/30 03:34:03;;;;;;;8.18;7.40;;;;;;;8.25;67.74;100415.06;4991582;28;20180;-81
2021/04/30 03:36:28;;;;;;;13.50;7.00;;;;;;;8.25;67.97;100416.84;4992949;28;20026;-81
2021/04/30 03:38:53;;;;;;;8.88;6.75;;;;;;;8.25;69.10;100415.06;4992795;28;20081;-81
2021/04/30 03:41:19;;;;;;;10.35;7.75;;;;;;;8.20;69.48;100411.88;4993034;28;20027;-81
2021/04/30 03:43:45;;;;;;;13.63;7.60;;;;;;;8.20;68.95;100417.13;4992472;28;20114;-81
2021/04/30 03:46:11;;;;;;;10.13;7.35;;;;;;;8.13;69.22;100415.78;4992787;28;20042;-81
2021/04/30 03:48:37;;;;;;;8.70;7.65;;;;;;;8.15;69.45;100413.91;4992765;28;20113;-81
2021/04/30 03:51:03;;;;;;;8.32;7.43;;;;;;;8.14;69.54;100412.25;4992631;28;20451;-81
2021/04/30 03:53:28;;;;;;;10.65;6.82;;;;;;;8.15;69.79;100406.06;4992577;28;20038;-80
2021/04/30 03:55:54;;;;;;;9.60;8.00;;;;;;;8.05;69.89;100405.75;4992584;28;20027;-81
2021/04/30 03:58:19;;;;;;;10.63;8.80;;;;;;;7.95;70.88;100407.22;4992528;28;20030;-81
2021/04/30 04:00:45;;;;;;;10.18;8.43;;;;;;;7.97;71.19;100404.53;4992547;28;20033;-81
2021/04/30 04:03:10;;;;;;;8.88;7.97;;;;;;;8.10;70.87;100410.75;4992662;28;20046;-81
2021/04/30 04:05:36;;;;;;;9.10;8.00;;;;;;;8.17;69.96;100412.06;4992352;28;20026;-81
2021/04/30 04:08:04;;;;;;;10.25;8.02;;;;;;;8.22;70.41;100417.88;4991194;28;20387;-81
2021/04/30 04:10:29;;;;;;;9.15;8.23;;;;;;;8.17;70.28;100419.91;4992495;28;20022;-81
2021/04/30 04:12:55;;;;;;;10.88;8.30;;;;;;;8.03;71.37;100420.69;4992440;28;20033;-81
2021/04/30 04:15:20;;;;;;;10.20;7.63;;;;;;;8.03;70.66;100419.84;4993104;28;20026;-80
2021/04/30 04:17:45;;;;;;;10.90;8.05;;;;;;;7.84;71.14;100418.31;4992461;28;20037;-81
2021/04/30 04:20:11;;;;;;;7.82;7.03;;;;;;;8.03;70.99;100423.31;4992539;28;20048;-81
2021/04/30 04:22:37;;;;;;;9.27;7.45;;;;;;;8.20;70.14;100426.75;4992308;28;20081;-81
2021/04/30 04:25:05;;;;;;;9.48;6.90;;;;;;;8.19;69.89;100422.44;4992313;28;20033;-81
2021/04/30 04:27:30;;;;;;;7.43;6.72;;;;;;;8.22;69.37;100433.56;4992264;28;20424;-81
2021/04/30 04:29:56;;;;;;;8.85;7.90;;;;;;;8.22;70.66;100427.50;4992255;28;20022;-82
2021/04/30 04:32:21;;;;;;;8.57;7.68;;;;;;;8.02;71.33;100423.41;4992430;28;20381;-81
2021/04/30 04:34:47;;;;;;;8.48;7.65;;;;;;;8.13;70.60;100426.25;4992124;28;20113;-81
2021/04/30 04:37:12;;;;;;;11.05;8.55;;;;;;;8.11;70.08;100428.94;4992033;28;20034;-82
2021/04/30 04:39:38;;;;;;;8.75;7.60;;;;;;;8.01;70.07;100432.19;4991063;28;20102;-82
2021/04/30 04:42:04;;;;;;;12.82;7.65;;;;;;;8.12;70.71;100432.41;4992138;28;20400;-82
2021/04/30 04:44:30;;;;;;;9.10;8.18;;;;;;;8.13;70.56;100434.09;4990903;28;20030;-81
2021/04/30 04:46:56;;;;;;;8.98;7.35;;;;;;;7.98;70.81;100443.66;4990963;28;20033;-81
2021/04/30 04:49:22;;;;;;;8.80;7.63;;;;;;;8.06;71.30;100440.63;4992261;28;20035;-82
2021/04/30 04:51:47;;;;;;;10.02;7.68;;;;;;;8.15;70.83;100434.84;4992210;28;20032;-81
2021/04/30 04:54:12;;;;;;;8.95;6.93;;;;;;;8.08;70.94;100434.38;4992188;28;20100;-82
2021/04/30 04:56:38;;;;;;;9.35;8.10;;;;;;;8.06;70.67;100432.78;4992017;28;20571;-81
2021/04/30 04:59:03;;;;;;;7.90;6.85;;;;;;;8.07;71.11;100437.06;4992081;28;20019;-81
2021/04/30 05:01:29;;;;;;;10.35;7.38;;;;;;;8.07;71.10;100437.88;4992049;28;20388;-82
2021/04/30 05:03:54;;;;;;;8.60;6.93;;;;;;;7.98;70.52;100438.44;4995392;28;20041;-81
2021/04/30 05:06:20;;;;;;;7.88;7.07;;;;;;;8.01;70.99;100437.41;4995640;28;20473;-81
2021/04/30 05:08:45;;;;;;;9.55;7.78;;;;;;;8.02;70.54;100442.56;4995319;28;20026;-81
2021/04/30 05:11:10;;;;;;;9.13;7.50;;;;;;;8.03;71.06;100451.25;4995253;28;20067;-81
2021/04/30 05:13:36;;;;;;;8.80;7.25;;;;;;;8.10;70.90;100442.97;4995808;28;20385;-81
2021/04/30 05:16:02;;;;;;;9.15;7.68;;;;;;;8.17;70.68;100453.06;4995360;28;20050;-81
2021/04/30 05:18:28;;;;;;;9.57;7.40;;;;;;;8.23;69.69;100445.69;4995598;28;20027;-81
2021/04/30 05:20:54;;;;;;;9.65;8.30;;;;;;;8.31;70.40;100453.97;4995316;28;20027;-81
2021/04/30 05:23:20;;;;;;;11.50;7.45;;;;;;;8.34;70.93;100455.56;4995194;28;20070;-82
2021/04/30 05:25:47;;;;;;;10.32;7.50;;;;;;;8.45;70.36;100458.44;4995151;28;20279;-81
2021/04/30 05:28:13;;;;;;;7.75;6.90;;;;;;;8.48;70.13;100458.25;4993813;28;20362;-81
2021/04/30 05:30:38;;;;;;;10.73;7.20;;;;;;;8.39;70.26;100458.75;4995071;28;20033;-81
2021/04/30 05:33:04;;;;;;;8.27;7.20;;;;;;;8.49;69.89;100454.72;4994951;28;20106;-81
2021/04/30 05:35:30;;;;;;;8.52;7.32;;;;;;;8.60;69.98;100461.91;4994831;28;20426;-81
2021/04/30 05:37:56;;;;;;;8.88;7.55;;;;;;;8.67;70.03;100465.03;4994932;28;20027;-81
2021/04/30 05:40:21;;;;;;;12.07;7.47;;;;;;;8.77;69.97;100467.91;4994749;28;20034;-81
2021/04/30 05:42:46;;;;;;;8.35;6.63;;;;;;;8.85;69.94;100469.16;4994799;28;20374;-82
2021/04/30 05:45:12;;;;;;;8.15;6.95;;;;;;;8.87;69.23;100472.53;4994781;28;20117;-81
2021/04/30 05:47:38;;;;;;;10.30;7.32;;;;;;;8.98;69.03;100471.88;4994902;28;20149;-82
2021/04/30 05:50:04;;;;;;;8.88;6.93;;;;;;;9.07;68.29;100479.19;4994826;28;20033;-82
2021/04/30 05:52:30;;;;;;;10.77;7.03;;;;;;;9.15;67.84;100483.97;4997475;28;20030;-81
2021/04/30 05:54:55;;;;;;;7.63;6.70;;;;;;;9.28;67.78;100478.81;5013896;28;20029;-81
2021/04/30 05:57:21;;;;;;;8.35;6.60;;;;;;;9.43;65.94;100480.50;5014130;28;20670;-81
2021/04/30 05:59:46;;;;;;;9.00;6.60;;;;;;;9.50;65.82;100484.41;5000029;28;20026;-81
2021/04/30 06:02:11;;;;;;;8.30;6.80;;;;;;;9.66;65.13;100489.53;4992962;28;20057;-81
2021/04/30 06:04:37;;;;;;;6.55;5.85;;;;;;;9.79;64.87;100489.59;4992809;28;20035;-81
2021/04/30 06:07:02;;;;;;;6.75;5.80;;;;;;;9.92;64.88;100482.66;4993907;28;20033;-81
2021/04/30 06:09:27;;;;;;;7.65;6.25;;;;;;;9.91;64.86;100482.72;4994535;28;20022;-81
2021/04/30 06:11:53;;;;;;;6.93;6.13;;;;;;;10.00;63.33;100483.94;4994129;28;20362;-81
2021/04/30 06:14:19;;;;;;;8.88;6.03;;;;;;;10.11;61.70;100486.69;4994807;28;20081;-81
2021/04/30 06:16:45;;;;;;;6.38;5.35;;;;;;;10.19;61.65;100487.06;4994069;28;20029;-81
2021/04/30 06:19:10;;;;;;;6.90;5.65;;;;;;;10.21;60.26;100487.81;4994057;28;20109;-81
2021/04/30 06:21:35;;;;;;;10.55;5.82;;;;;;;10.27;60.25;100484.78;4994101;28;20531;-81
2021/04/30 06:24:01;;;;;;;6.90;5.80;;;;;;;10.24;61.06;100490.22;4994125;28;20038;-81
2021/04/30 06:26:28;;;;;;;5.90;5.30;;;;;;;10.11;60.51;100490.19;4992817;28;20072;-81
2021/04/30 06:28:53;;;;;;;8.25;5.60;;;;;;;10.25;60.64;100491.06;4993952;28;20084;-82
2021/04/30 06:31:18;;;;;;;7.65;5.70;;;;;;;10.24;59.98;100495.47;4993731;28;20027;-81
2021/04/30 06:33:44;;;;;;;5.72;5.13;;;;;;;10.25;59.47;100496.31;4992932;28;20500;-81
2021/04/30 06:36:09;;;;;;;7.03;5.45;;;;;;;10.32;59.10;100497.63;5005250;28;20040;-81
2021/04/30 06:38:35;;;;;;;13.20;6.70;;;;;;;10.19;60.24;100488.81;5012758;28;20034;-81
2021/04/30 06:41:00;;;;;;;7.88;5.85;;;;;;;10.23;60.22;100492.94;5011958;28;20033;-81
2021/04/30 06:43:25;;;;;;;8.20;5.32;;;;;;;10.27;59.86;100500.53;5012979;28;20025;-83
2021/04/30 06:45:51;;;;;;;8.55;5.53;;;;;;;10.42;59.84;100498.69;5013251;28;20458;-83
2021/04/30 06:48:16;;;;;;;7.22;5.13;;;;;;;10.50;59.63;100498.19;5022095;28;20040;-83
2021/04/30 06:50:41;;;;;;;7.90;5.70;;;;;;;10.46;59.72;100497.53;5030543;28;20017;-83
2021/04/30 06:53:07;;;;;;;9.18;5.30;;;;;;;10.57;58.93;100496.03;5028532;28;20496;-84
2021/04/30 06:55:32;;;;;;;10.13;6.95;;;;;;;10.61;59.29;100508.00;5007119;28;20034;-83
2021/04/30 06:57:58;;;;;;;7.57;5.35;;;;;;;10.64;58.47;100507.78;5013031;28;20026;-84
2021/04/30 07:00:23;;;;;;;7.32;5.88;;;;;;;10.78;57.60;100491.09;5012836;28;20396;-84
2021/04/30 07:02:49;;;;;;;8.40;5.40;;;;;;;10.62;58.46;100497.38;5012589;28;20369;-83
2021/04/30 07:05:14;;;;;;;6.80;4.95;;;;;;;10.85;58.17;100510.75;5006289;28;20105;-84
2021/04/30 07:07:41;;;;;;;6.10;5.50;;;;;;;10.71;59.17;100503.81;5012779;28;20100;-83
2021/04/30 07:10:08;;;;;;;7.97;5.32;;;;;;;10.77;58.79;100502.56;5009465;28;20033;-83
2021/04/30 07:12:34;;;;;;;7.80;5.95;;;;;;;10.79;59.12;100500.66;5005675;28;20076;-84
2021/04/30 07:15:01;;;;;;;8.48;6.03;;;;;;;11.09;58.55;100505.63;5012758;28;20392;-85
2021/04/30 07:17:30;;;;;;;8.45;6.78;;;;;;;10.90;58.46;100503.44;5012270;28;20021;-93
2021/04/30 07:19:56;;;;;;;10.77;6.75;;;;;;;11.00;59.31;100509.72;5015662;28;20026;-85
2021/04/30 07:22:21;;;;;;;7.57;6.75;;;;;;;11.16;58.12;100508.66;5021319;28;20029;-82
2021/04/30 07:24:47;;;;;;;12.95;6.43;;;;;;;11.16;57.41;100516.53;5012081;28;20028;-85
2021/04/30 07:27:12;;;;;;;10.38;6.72;;;;;;;11.22;56.79;100509.09;5011617;28;20361;-86
2021/04/30 07:29:38;;;;;;;6.57;5.93;;;;;;;11.29;57.03;100520.88;5010898;28;20035;-86
2021/04/30 07:32:04;;;;;;;6.75;5.90;;;;;;;11.49;56.41;100503.72;5007677;28;20088;-85
2021/04/30 07:34:29;;;;;;;10.13;6.18;;;;;;;11.51;56.26;100514.97;5009584;28;20029;-85
2021/04/30 07:36:55;;;;;;;11.93;6.45;;;;;;;11.63;55.76;100513.25;5011627;28;20034;-86
2021/04/30 07:39:20;;;;;;;8.40;5.38;;;;;;;11.90;54.44;100517.53;5009800;28;20049;-86
2021/04/30 07:41:46;;;;;;;7.85;5.63;;;;;;;11.79;53.56;100505.13;5009175;28;20025;-86
2021/04/30 07:44:11;;;;;;;6.28;5.63;;;;;;;12.00;54.10;100510.63;5008832;28;20365;-86
2021/04/30 07:46:37;;;;;;;6.28;5.18;;;;;;;11.94;53.22;100511.09;5009454;28;20046;-85
2021/04/30 07:49:03;;;;;;;12.00;5.78;;;;;;;12.74;52.49;100509.63;5010847;28;20397;-86
2021/04/30 07:51:28;;;;;;;7.93;5.43;;;;;;;12.83;50.57;100520.31;5012638;28;20042;-86
2021/04/30 07:53:54;;;;;;;7.95;5.43;;;;;;;13.16;50.38;100523.16;5007118;28;20029;-86
2021/04/30 07:56:19;;;;;;;10.07;6.85;;;;;;;13.58;48.83;100518.16;5009949;28;20026;-83
2021/04/30 07:58:45;;;;;;;7.30;4.80;;;;;;;14.88;45.22;100512.81;5011478;28;20295;-82
2021/04/30 08:01:10;;;;;;;6.45;4.40;;;;;;;15.36;44.72;100508.75;5006136;28;20037;-83
2021/04/30 08:03:36;;;;;;;9.38;4.45;;;;;;;15.79;43.39;100507.69;5011652;28;20038;-84
2021/04/30 08:06:01;;;;;;;9.18;4.10;;;;;;;15.89;41.97;100517.47;5010776;28;20041;-85
2021/04/30 08:08:27;;;;;;;12.73;4.25;;;;;;;17.02;39.99;100501.03;5007268;28;20392;-84
2021/04/30 08:10:52;;;;;;;7.72;4.00;;;;;;;16.65;40.19;100515.03;5001129;28;20124;-85
2021/04/30 08:13:18;;;;;;;25.25;4.90;;;;;;;16.11;41.37;100508.44;5002117;28;20034;-85
2021/04/30 08:15:43;;;;;;;6.63;3.25;;;;;;;16.17;40.93;100508.75;5010209;28;20087;-85
2021/04/30 08:18:09;;;;;;;8.77;2.90;;;;;;;16.39;39.94;100514.72;5008402;28;20041;-85
2021/04/30 08:20:34;;;;;;;6.50;2.90;;;;;;;16.28;40.74;100518.38;5009327;28;20081;-85
2021/04/30 08:23:00;;;;;;;6.90;3.00;;;;;;;16.45;41.13;100514.22;5005118;28;20440;-85
2021/04/30 08:25:25;;;;;;;8.25;3.40;;;;;;;17.17;39.68;100518.16;5000053;28;20544;-85
2021/04/30 08:27:51;;;;;;;7.15;3.25;;;;;;;18.47;37.21;100519.84;5010063;28;20033;-85
2021/04/30 08:30:17;;;;;;;9.88;3.50;;;;;;;18.68;36.31;100516.00;5011552;28;20034;-85
2021/04/30 08:32:43;;;;;;;6.93;2.80;;;;;;;19.61;35.24;100517.09;5011028;28;20026;-86
2021/04/30 08:35:09;;;;;;;6.32;2.75;;;;;;;19.30;34.21;100516.78;5007884;28;20388;-86
2021/04/30 08:37:35;;;;;;;4.68;2.63;;;;;;;20.46;33.04;100515.31;5014753;28;20034;-86
2021/04/30 08:40:01;;;;;;;5.53;2.80;;;;;;;20.79;31.60;100514.34;5015748;28;20087;-86
2021/04/30 08:42:28;;;;;;;6.88;3.08;;;;;;;21.57;30.87;100512.84;5014627;28;20102;-86
2021/04/30 08:44:53;;;;;;;5.53;2.85;;;;;;;22.08;29.43;100509.75;5011909;28;20029;-86
2021/04/30 08:47:20;;;;;;;5.30;2.53;;;;;;;22.29;29.94;100521.66;5014836;28;20108;-86
2021/04/30 08:49:47;;;;;;;6.47;2.55;;;;;;;22.71;28.82;100518.50;5014417;28;20045;-85
2021/04/30 08:52:13;;;;;;;6.93;2.50;;;;;;;21.08;29.90;100523.66;5014962;28;20113;-84
2021/04/30 08:54:39;;;;;;;6.68;2.53;;;;;;;21.75;29.93;100522.47;5015031;28;20056;-85
2021/04/30 08:57:08;;;;;;;3.88;2.38;;;;;;;20.67;30.89;100521.00;5013997;28;20045;-84
2021/04/30 08:59:35;;;;;;;5.00;2.92;;;;;;;20.45;31.16;100517.16;5009602;28;20065;-85
2021/04/30 09:02:01;;;;;;;4.18;2.83;;;;;;;21.27;31.23;100527.78;5005351;28;20037;-85
2021/04/30 09:04:26;;;;;;;4.68;2.58;;;;;;;21.56;29.49;100518.34;4994901;28;20026;-83
2021/04/30 09:06:52;;;;;;;9.23;2.70;;;;;;;22.07;28.96;100513.41;5011329;28;20041;-83
2021/04/30 09:09:20;;;;;;;4.53;2.30;;;;;;;22.69;28.20;100514.31;5012216;28;20027;-83
2021/04/30 09:11:52;;;;;;;7.55;2.33;;;;;;;23.54;27.33;100507.78;5012216;28;20083;-83
2021/04/30 09:14:30;;;;;;;7.97;2.70;;;;;;;23.29;27.00;100508.06;4995260;28;20027;-83
2021/04/30 09:17:15;;;;;;;4.45;2.45;;;;;;;23.54;28.80;100513.13;5011571;28;20423;-83
2021/04/30 09:19:58;;;;;;;5.20;2.38;;;;;;;24.10;27.13;100515.25;5012402;28;20052;-83
2021/04/30 09:22:28;;;;;;;5.97;2.60;;;;;;;23.02;26.91;100506.84;4999832;28;20026;-83
2021/04/30 09:24:58;;;;;;;3.60;2.35;;;;;;;22.92;27.95;100507.06;4994420;28;20026;-83
2021/04/30 09:27:46;;;;;;;6.07;2.70;;;;;;;22.54;28.36;100514.28;4998871;28;20034;-83
2021/04/30 09:30:22;;;;;;;5.85;2.33;;;;;;;22.71;27.59;100510.47;5013326;28;20037;-82
2021/04/30 09:33:17;;;;;;;6.13;2.50;;;;;;;23.51;26.42;100510.81;5009976;28;20444;-81
2021/04/30 09:35:43;;;;;;;5.13;2.25;;;;;;;23.03;27.68;100510.38;4996102;28;20113;-80
2021/04/30 09:38:19;;;;;;;5.63;2.17;;;;;;;23.41;27.92;100499.56;5011786;28;20030;-80
2021/04/30 09:40:46;;;;;;;7.78;2.50;;;;;;;22.60;29.05;100510.88;5013969;28;20037;-80
2021/04/30 09:43:13;;;;;;;6.57;2.97;;;;;;;24.38;25.45;100499.22;5012163;28;20113;-81
2021/04/30 09:45:39;;;;;;;5.03;2.53;;;;;;;23.73;26.66;100501.81;5013146;28;20369;-81
2021/04/30 09:48:06;;;;;;;6.82;2.80;;;;;;;22.97;26.05;100510.03;4998996;28;20080;-80
2021/04/30 09:50:33;;;;;;;5.30;2.63;;;;;;;22.08;28.45;100508.91;5007689;28;20022;-80
2021/04/30 09:53:00;;;;;;;4.80;2.47;;;;;;;23.44;27.55;100509.88;5001742;28;20388;-80
2021/04/30 09:55:46;;;;;;;3.95;2.13;;;;;;;22.40;27.87;100510.56;5009268;28;20094;-80
2021/04/30 09:58:22;;;;;;;4.72;2.53;;;;;;;20.69;30.14;100503.00;4998224;28;20025;-81
2021/04/30 10:00:50;;;;;;;3.63;2.22;;;;;;;20.42;31.21;100504.16;5009216;28;20187;-80
2021/04/30 10:03:27;;;;;;;4.20;2.40;;;;;;;22.64;28.94;100504.16;5013379;28;20083;-80
2021/04/30 10:06:13;;;;;;;4.15;2.08;;;;;;;23.46;26.51;100498.00;5012429;28;20034;-80
2021/04/30 10:08:40;;;;;;;3.33;2.33;;;;;;;23.05;27.05;100489.59;4994064;28;20354;-80
2021/04/30 10:11:29;;;;;;;5.90;2.40;;;;;;;22.68;26.69;100501.97;5012530;28;20061;-81
2021/04/30 10:13:55;;;;;;;3.85;2.22;;;;;;;23.52;25.94;100499.09;5002147;28;20377;-81
2021/04/30 10:16:20;;;;;;;5.13;2.05;;;;;;;23.30;26.46;100501.69;5010554;28;20025;-81
2021/04/30 10:18:45;;;;;;;6.80;2.50;;;;;;;23.48;27.41;100495.09;5011959;28;20036;-81
2021/04/30 10:21:12;;;;;;;4.55;1.83;;;;;;;23.45;28.09;100490.94;5009754;28;20030;-81
2021/04/30 10:23:43;;;;;;;4.63;2.22;;;;;;;22.27;29.33;100497.75;5011988;28;20117;-80
2021/04/30 10:26:08;;;;;;;4.03;2.53;;;;;;;23.03;26.95;100491.63;5011241;28;20058;-80
2021/04/30 10:28:35;;;;;;;5.97;2.30;;;;;;;23.40;26.98;100485.34;5011893;28;20061;-80
2021/04/30 10:31:09;;;;;;;6.28;2.90;;;;;;;23.64;27.97;100486.88;5011097;28;20071;-80
2021/04/30 10:33:58;;;;;;;5.95;2.60;;;;;;;23.00;27.85;100484.75;5005947;28;20108;-81
2021/04/30 10:36:30;;;;;;;3.97;2.75;;;;;;;23.90;27.09;100483.69;5012320;28;20057;-80
2021/04/30 10:38:57;;;;;;;5.32;2.55;;;;;;;23.12;25.40;100479.78;4993664;28;20519;-80
2021/04/30 10:41:34;;;;;;;5.60;2.28;;;;;;;22.33;26.60;100488.19;5002333;28;20061;-81
2021/04/30 10:44:23;;;;;;;11.13;2.60;;;;;;;21.42;27.56;100481.66;4992855;28;20049;-80
2021/04/30 10:47:12;;;;;;;5.30;2.25;;;;;;;20.92;29.36;100483.66;4994773;28;20097;-80
2021/04/30 10:49:39;;;;;;;6.68;2.78;;;;;;;20.31;28.85;100478.66;4993578;28;20018;-80
2021/04/30 10:52:16;;;;;;;3.60;2.60;;;;;;;20.08;30.28;100473.13;5012449;28;20037;-80
2021/04/30 10:54:43;;;;;;;4.70;2.83;;;;;;;19.95;30.57;100480.78;5011796;28;20045;-80
2021/04/30 10:57:10;;;;;;;3.60;2.20;;;;;;;19.15;32.31;100473.94;5010863;28;20488;-92
2021/04/30 10:59:38;;;;;;;3.38;2.45;;;;;;;19.03;33.29;100470.72;4994342;28;20022;-87
2021/04/30 11:02:22;;;;;;;3.78;2.53;;;;;;;21.56;30.36;100470.25;5011297;28;20057;-79
2021/04/30 11:05:02;;;;;;;4.13;2.83;;;;;;;21.75;26.10;100466.34;4999100;28;20038;-79
2021/04/30 11:07:32;;;;;;;5.00;2.50;;;;;;;20.79;29.69;100463.66;5009149;28;20109;-79
2021/04/30 11:09:57;;;;;;;3.03;2.17;;;;;;;20.91;28.66;100461.47;5011931;28;20033;-79
2021/04/30 11:12:24;;;;;;;6.28;3.10;;;;;;;22.10;28.92;100467.63;5012637;28;20026;-78
2021/04/30 11:15:02;;;;;;;3.40;2.40;;;;;;;23.38;26.87;100463.25;5011449;28;20095;-80
2021/04/30 11:17:57;;;;;;;3.53;2.08;;;;;;;24.75;24.62;100459.69;5011785;28;20496;-80
2021/04/30 11:20:25;;;;;;;3.83;2.80;;;;;;;23.45;26.79;100456.13;5003735;28;20396;-81
2021/04/30 11:23:28;;;;;;;4.78;2.50;;;;;;;22.16;28.56;100464.22;5012000;28;20022;-80
2021/04/30 11:26:07;;;;;;;2.58;2.05;;;;;;;21.23;29.61;100459.69;5011259;28;20370;-80